createdAt,value
2023-04-25T00:00:08.053Z,97463.00
2023-04-25T00:02:48.188Z,97458.00
2023-04-25T00:05:24.810Z,97458.00
2023-04-25T00:08:00.855Z,97462.00
2023-04-25T00:10:37.265Z,97462.00
2023-04-25T00:13:13.171Z,97460.00
2023-04-25T00:15:49.200Z,97464.00
2023-04-25T00:18:25.623Z,97466.00
2023-04-25T00:21:01.564Z,97458.00
2023-04-25T00:23:37.596Z,97457.00
2023-04-25T00:26:14.009Z,97447.00
2023-04-25T00:28:49.940Z,97449.00
2023-04-25T00:31:25.929Z,97452.00
2023-04-25T00:34:02.002Z,97457.00
2023-04-25T00:36:37.869Z,97459.00
2023-04-25T00:39:14.002Z,97455.00
2023-04-25T00:41:55.604Z,97437.00
2023-04-25T00:44:33.346Z,97439.00
2023-04-25T00:47:09.485Z,97436.00
2023-04-25T00:49:45.541Z,97434.00
2023-04-25T00:52:21.998Z,97439.00
2023-04-25T00:54:57.973Z,97436.00
2023-04-25T00:57:34.117Z,97439.00
2023-04-25T01:00:12.093Z,97429.00
2023-04-25T01:02:48.753Z,97435.00
2023-04-25T01:05:24.979Z,97423.00
2023-04-25T01:08:01.022Z,97431.00
2023-04-25T01:10:37.940Z,97424.00
2023-04-25T01:13:13.828Z,97419.00
2023-04-25T01:15:49.741Z,97423.00
2023-04-25T01:18:26.060Z,97423.00
2023-04-25T01:21:13.986Z,97419.00
2023-04-25T01:23:51.172Z,97420.00
2023-04-25T01:26:28.652Z,97425.00
2023-04-25T01:29:05.895Z,97427.00
2023-04-25T01:31:42.878Z,97413.00
2023-04-25T01:34:18.820Z,97407.00
2023-04-25T01:36:54.967Z,97408.00
2023-04-25T01:39:31.677Z,97405.00
2023-04-25T01:42:09.280Z,97404.00
2023-04-25T01:44:45.952Z,97411.00
2023-04-25T01:47:21.975Z,97409.00
2023-04-25T01:49:57.954Z,97404.00
2023-04-25T01:52:33.999Z,97411.00
2023-04-25T01:55:10.649Z,97418.00
2023-04-25T01:57:50.601Z,97413.00
2023-04-25T02:00:28.627Z,97417.00
2023-04-25T02:03:04.835Z,97419.00
2023-04-25T02:05:42.820Z,97412.00
2023-04-25T02:08:21.881Z,97414.00
2023-04-25T02:10:58.250Z,97422.00
2023-04-25T02:13:40.184Z,97413.00
2023-04-25T02:16:48.385Z,97413.00
2023-04-25T02:19:24.397Z,97410.00
2023-04-25T02:22:00.460Z,97402.00
2023-04-25T02:24:36.476Z,97395.00
2023-04-25T02:27:13.268Z,97393.00
2023-04-25T02:29:49.202Z,97396.00
2023-04-25T02:32:25.330Z,97397.00
2023-04-25T02:35:04.850Z,97397.00
2023-04-25T02:37:41.554Z,97402.00
2023-04-25T02:40:17.411Z,97403.00
2023-04-25T02:42:53.297Z,97398.00
2023-04-25T02:45:29.173Z,97399.00
2023-04-25T02:48:06.024Z,97397.00
2023-04-25T02:50:42.088Z,97396.00
2023-04-25T02:53:17.947Z,97391.00
2023-04-25T02:55:59.377Z,97397.00
2023-04-25T02:58:35.622Z,97396.00
2023-04-25T03:01:11.647Z,97383.00
2023-04-25T03:03:47.841Z,97393.00
2023-04-25T03:06:24.035Z,97394.00
2023-04-25T03:08:59.959Z,97391.00
2023-04-25T03:11:35.863Z,97388.00
2023-04-25T03:14:13.328Z,97387.00
2023-04-25T03:16:49.509Z,97391.00
2023-04-25T03:19:26.893Z,97381.00
2023-04-25T03:22:02.792Z,97378.00
2023-04-25T03:24:39.107Z,97370.00
2023-04-25T03:27:15.267Z,97372.00
2023-04-25T03:29:51.231Z,97376.00
2023-04-25T03:32:27.333Z,97373.00
2023-04-25T03:35:03.554Z,97388.00
2023-04-25T03:37:46.363Z,97382.00
2023-04-25T03:40:27.045Z,97369.00
2023-04-25T03:43:25.749Z,97385.00
2023-04-25T03:46:07.762Z,97386.00
2023-04-25T03:48:45.245Z,97380.00
2023-04-25T03:51:27.555Z,97380.00
2023-04-25T03:54:03.617Z,97381.00
2023-04-25T03:57:11.735Z,97385.00
2023-04-25T03:59:49.236Z,97380.00
2023-04-25T04:02:26.544Z,97379.00
2023-04-25T04:05:03.779Z,97377.00
2023-04-25T04:07:43.489Z,97375.00
2023-04-25T04:10:21.151Z,97376.00
2023-04-25T04:12:57.448Z,97369.00
2023-04-25T04:15:35.007Z,97374.00
2023-04-25T04:18:11.742Z,97364.00
2023-04-25T04:20:47.903Z,97373.00
2023-04-25T04:23:23.941Z,97381.00
2023-04-25T04:26:01.882Z,97384.00
2023-04-25T04:28:56.578Z,97392.00
2023-04-25T04:31:42.554Z,97383.00
2023-04-25T04:34:19.395Z,97386.00
2023-04-25T04:36:55.990Z,97388.00
2023-04-25T04:39:32.101Z,97383.00
2023-04-25T04:42:17.048Z,97395.00
2023-04-25T04:45:05.078Z,97402.00
2023-04-25T04:47:56.321Z,97399.00
2023-04-25T04:51:04.652Z,97397.00
2023-04-25T04:53:59.264Z,97407.00
2023-04-25T04:56:54.213Z,97407.00
2023-04-25T05:00:01.524Z,97413.00
2023-04-25T05:02:57.390Z,97414.00
2023-04-25T05:05:41.795Z,97422.00
2023-04-25T05:08:20.708Z,97428.00
2023-04-25T05:11:26.123Z,97422.00
2023-04-25T05:14:20.360Z,97417.00
2023-04-25T05:17:14.809Z,97418.00
2023-04-25T05:20:10.911Z,97416.00
2023-04-25T05:23:06.515Z,97406.00
2023-04-25T05:26:04.113Z,97411.00
2023-04-25T05:28:49.352Z,97418.00
2023-04-25T05:31:43.880Z,97422.00
2023-04-25T05:34:23.206Z,97418.00
2023-04-25T05:37:04.439Z,97426.00
2023-04-25T05:39:42.377Z,97425.00
2023-04-25T05:42:24.633Z,97433.00
2023-04-25T05:45:14.591Z,97420.00
2023-04-25T05:48:09.240Z,97420.00
2023-04-25T05:51:08.394Z,97418.00
2023-04-25T05:54:09.223Z,97429.00
2023-04-25T05:56:46.475Z,97423.00
2023-04-25T05:59:22.840Z,97417.00
2023-04-25T06:02:01.804Z,97425.00
2023-04-25T06:04:40.860Z,97426.00
2023-04-25T06:07:17.084Z,97428.00
2023-04-25T06:09:54.351Z,97429.00
2023-04-25T06:12:30.791Z,97435.00
2023-04-25T06:15:20.136Z,97439.00
2023-04-25T06:18:03.794Z,97440.00
2023-04-25T06:20:40.781Z,97432.00
2023-04-25T06:23:16.703Z,97425.00
2023-04-25T06:26:01.867Z,97423.00
2023-04-25T06:28:40.217Z,97424.00
2023-04-25T06:31:20.306Z,97424.00
2023-04-25T06:33:57.974Z,97423.00
2023-04-25T06:36:35.591Z,97417.00
2023-04-25T06:39:16.853Z,97416.00
2023-04-25T06:41:52.821Z,97415.00
2023-04-25T06:44:47.863Z,97410.00
2023-04-25T06:47:25.393Z,97418.00
2023-04-25T06:50:01.624Z,97411.00
2023-04-25T06:52:37.789Z,97412.00
2023-04-25T06:55:16.587Z,97420.00
2023-04-25T06:58:22.101Z,97426.00
2023-04-25T07:01:00.674Z,97418.00
2023-04-25T07:03:38.727Z,97417.00
2023-04-25T07:06:21.537Z,97418.00
2023-04-25T07:08:57.766Z,97423.00
2023-04-25T07:11:33.941Z,97430.00
2023-04-25T07:14:09.898Z,97424.00
2023-04-25T07:16:46.023Z,97429.00
2023-04-25T07:19:23.850Z,97422.00
2023-04-25T07:22:02.086Z,97435.00
2023-04-25T07:24:41.349Z,97430.00
2023-04-25T07:27:20.280Z,97437.00
2023-04-25T07:30:11.718Z,97434.00
2023-04-25T07:32:49.058Z,97441.00
2023-04-25T07:35:26.684Z,97441.00
2023-04-25T07:38:04.361Z,97445.00
2023-04-25T07:40:42.152Z,97449.00
2023-04-25T07:43:20.555Z,97442.00
2023-04-25T07:46:03.900Z,97440.00
2023-04-25T07:48:43.563Z,97457.00
2023-04-25T07:51:20.879Z,97453.00
2023-04-25T07:53:57.512Z,97455.00
2023-04-25T07:56:48.962Z,97454.00
2023-04-25T07:59:30.151Z,97464.00
2023-04-25T08:02:08.184Z,97456.00
2023-04-25T08:04:44.330Z,97461.00
2023-04-25T08:07:22.491Z,97478.00
2023-04-25T08:10:03.768Z,97473.00
2023-04-25T08:12:43.181Z,97479.00
2023-04-25T08:15:19.465Z,97478.00
2023-04-25T08:17:55.748Z,97485.00
2023-04-25T08:20:32.827Z,97483.00
2023-04-25T08:23:11.941Z,97480.00
2023-04-25T08:26:01.751Z,97486.00
2023-04-25T08:28:39.895Z,97502.00
2023-04-25T08:31:18.307Z,97500.00
2023-04-25T08:34:03.691Z,97495.00
2023-04-25T08:36:52.111Z,97511.00
2023-04-25T08:39:36.684Z,97510.00
2023-04-25T08:42:36.483Z,97515.00
2023-04-25T08:45:14.375Z,97517.00
2023-04-25T08:47:54.270Z,97516.00
2023-04-25T08:50:31.268Z,97526.00
2023-04-25T08:53:11.353Z,97520.00
2023-04-25T08:55:49.152Z,97536.00
2023-04-25T08:58:25.254Z,97531.00
2023-04-25T09:01:01.252Z,97539.00
2023-04-25T09:03:41.724Z,97541.00
2023-04-25T09:06:18.946Z,97543.00
2023-04-25T09:08:54.954Z,97544.00
2023-04-25T09:11:34.544Z,97550.00
2023-04-25T09:14:21.767Z,97559.00
2023-04-25T09:17:24.381Z,97569.00
2023-04-25T09:20:16.176Z,97569.00
2023-04-25T09:23:13.968Z,97571.00
2023-04-25T09:25:52.002Z,97576.00
2023-04-25T09:28:30.854Z,97581.00
2023-04-25T09:31:12.606Z,97583.00
2023-04-25T09:34:04.540Z,97587.00
2023-04-25T09:36:51.699Z,97605.00
2023-04-25T09:39:48.789Z,97602.00
2023-04-25T09:42:28.439Z,97610.00
2023-04-25T09:45:05.474Z,97609.00
2023-04-25T09:47:47.297Z,97611.00
2023-04-25T09:50:29.461Z,97604.00
2023-04-25T09:53:15.893Z,97612.00
2023-04-25T09:56:11.157Z,97620.00
2023-04-25T09:58:50.022Z,97621.00
2023-04-25T10:01:28.543Z,97622.00
2023-04-25T10:04:22.808Z,97614.00
2023-04-25T10:07:09.438Z,97624.00
2023-04-25T10:09:51.299Z,97632.00
2023-04-25T10:12:28.164Z,97636.00
2023-04-25T10:15:06.708Z,97644.00
2023-04-25T10:17:43.405Z,97647.00
2023-04-25T10:20:20.029Z,97646.00
2023-04-25T10:23:13.979Z,97656.00
2023-04-25T10:25:53.421Z,97669.00
2023-04-25T10:28:29.801Z,97663.00
2023-04-25T10:31:09.506Z,97674.00
2023-04-25T10:33:45.699Z,97675.00
2023-04-25T10:36:24.903Z,97680.00
2023-04-25T10:39:09.965Z,97688.00
2023-04-25T10:41:58.990Z,97688.00
2023-04-25T10:44:35.785Z,97690.00
2023-04-25T10:47:12.102Z,97691.00
2023-04-25T10:49:52.185Z,97695.00
2023-04-25T10:52:30.731Z,97706.00
2023-04-25T10:55:07.304Z,97699.00
2023-04-25T10:57:48.382Z,97703.00
2023-04-25T11:00:38.352Z,97706.00
2023-04-25T11:03:25.521Z,97709.00
2023-04-25T11:06:03.535Z,97702.00
2023-04-25T11:08:51.821Z,97706.00
2023-04-25T11:11:30.359Z,97710.00
2023-04-25T11:14:07.759Z,97706.00
2023-04-25T11:16:43.814Z,97715.00
2023-04-25T11:19:21.695Z,97706.00
2023-04-25T11:21:58.868Z,97709.00
2023-04-25T11:24:36.797Z,97708.00
2023-04-25T11:27:13.712Z,97725.00
2023-04-25T11:29:49.845Z,97718.00
2023-04-25T11:32:27.668Z,97714.00
2023-04-25T11:35:04.276Z,97722.00
2023-04-25T11:37:41.122Z,97731.00
2023-04-25T11:40:18.068Z,97726.00
2023-04-25T11:42:55.249Z,97729.00
2023-04-25T11:45:33.959Z,97729.00
2023-04-25T11:48:09.914Z,97724.00
2023-04-25T11:50:46.859Z,97727.00
2023-04-25T11:53:22.755Z,97736.00
2023-04-25T11:55:58.630Z,97730.00
2023-04-25T11:58:58.743Z,97728.00
2023-04-25T12:01:38.034Z,97743.00
2023-04-25T12:04:21.461Z,97739.00
2023-04-25T12:06:57.689Z,97735.00
2023-04-25T12:09:34.973Z,97746.00
2023-04-25T12:12:12.762Z,97744.00
2023-04-25T12:14:49.986Z,97746.00
2023-04-25T12:17:28.107Z,97752.00
2023-04-25T12:20:16.162Z,97753.00
2023-04-25T12:22:53.285Z,97754.00
2023-04-25T12:25:43.140Z,97756.00
2023-04-25T12:28:28.387Z,97758.00
2023-04-25T12:31:08.055Z,97754.00
2023-04-25T12:33:48.757Z,97745.00
2023-04-25T12:36:24.814Z,97759.00
2023-04-25T12:39:05.084Z,97757.00
2023-04-25T12:41:41.189Z,97751.00
2023-04-25T12:44:18.181Z,97745.00
2023-04-25T12:46:55.542Z,97759.00
2023-04-25T12:49:33.022Z,97757.00
2023-04-25T12:52:09.881Z,97766.00
2023-04-25T12:54:46.244Z,97766.00
2023-04-25T12:57:22.190Z,97760.00
2023-04-25T12:59:58.117Z,97773.00
2023-04-25T13:02:35.013Z,97766.00
2023-04-25T13:05:12.174Z,97761.00
2023-04-25T13:07:48.850Z,97760.00
2023-04-25T13:10:24.700Z,97758.00
2023-04-25T13:13:02.163Z,97761.00
2023-04-25T13:15:38.474Z,97753.00
2023-04-25T13:18:14.488Z,97752.00
2023-04-25T13:20:50.332Z,97765.00
2023-04-25T13:23:28.750Z,97761.00
2023-04-25T13:26:04.818Z,97756.00
2023-04-25T13:28:44.344Z,97757.00
2023-04-25T13:31:20.944Z,97760.00
2023-04-25T13:33:56.924Z,97761.00
2023-04-25T13:36:32.890Z,97760.00
2023-04-25T13:39:08.890Z,97773.00
2023-04-25T13:41:44.766Z,97767.00
2023-04-25T13:44:21.873Z,97773.00
2023-04-25T13:46:58.967Z,97768.00
2023-04-25T13:49:34.991Z,97775.00
2023-04-25T13:52:11.416Z,97768.00
2023-04-25T13:54:47.804Z,97779.00
2023-04-25T13:57:24.113Z,97780.00
2023-04-25T14:00:05.704Z,97777.00
2023-04-25T14:02:42.626Z,97794.00
2023-04-25T14:05:18.775Z,97778.00
2023-04-25T14:07:54.715Z,97783.00
2023-04-25T14:10:30.652Z,97775.00
2023-04-25T14:13:08.305Z,97774.00
2023-04-25T14:15:45.457Z,97774.00
2023-04-25T14:18:21.422Z,97761.00
2023-04-25T14:20:57.272Z,97766.00
2023-04-25T14:23:34.933Z,97762.00
2023-04-25T14:26:13.657Z,97757.00
2023-04-25T14:28:49.939Z,97768.00
2023-04-25T14:31:26.250Z,97776.00
2023-04-25T14:34:04.654Z,97782.00
2023-04-25T14:36:40.746Z,97779.00
2023-04-25T14:39:17.562Z,97780.00
2023-04-25T14:41:55.168Z,97783.00
2023-04-25T14:44:31.213Z,97785.00
2023-04-25T14:47:07.201Z,97789.00
2023-04-25T14:49:44.973Z,97787.00
2023-04-25T14:52:22.120Z,97787.00
2023-04-25T14:55:05.630Z,97789.00
2023-04-25T14:57:41.655Z,97797.00
2023-04-25T15:00:19.452Z,97798.00
2023-04-25T15:02:56.992Z,97791.00
2023-04-25T15:05:33.063Z,97789.00
2023-04-25T15:08:11.323Z,97785.00
2023-04-25T15:10:48.492Z,97789.00
2023-04-25T15:13:25.684Z,97789.00
2023-04-25T15:16:01.988Z,97777.00
2023-04-25T15:18:37.889Z,97781.00
2023-04-25T15:21:13.774Z,97782.00
2023-04-25T15:23:49.824Z,97786.00
2023-04-25T15:26:26.004Z,97794.00
2023-04-25T15:29:02.095Z,97792.00
2023-04-25T15:31:38.651Z,97797.00
2023-04-25T15:34:14.657Z,97791.00
2023-04-25T15:36:50.610Z,97797.00
2023-04-25T15:39:26.630Z,97803.00
2023-04-25T15:42:03.483Z,97795.00
2023-04-25T15:44:39.418Z,97803.00
2023-04-25T15:47:15.744Z,97814.00
2023-04-25T15:49:51.720Z,97807.00
2023-04-25T15:52:28.215Z,97805.00
2023-04-25T15:55:06.301Z,97808.00
2023-04-25T15:57:43.552Z,97800.00
2023-04-25T16:00:21.939Z,97805.00
2023-04-25T16:02:59.339Z,97806.00
2023-04-25T16:05:35.366Z,97804.00
2023-04-25T16:08:12.043Z,97808.00
2023-04-25T16:10:48.327Z,97805.00
2023-04-25T16:13:25.135Z,97806.00
2023-04-25T16:16:02.308Z,97804.00
2023-04-25T16:18:39.313Z,97809.00
2023-04-25T16:21:17.370Z,97810.00
2023-04-25T16:23:53.486Z,97811.00
2023-04-25T16:26:29.594Z,97814.00
2023-04-25T16:29:07.408Z,97804.00
2023-04-25T16:31:44.528Z,97801.00
2023-04-25T16:34:23.188Z,97814.00
2023-04-25T16:36:59.180Z,97820.00
2023-04-25T16:39:36.307Z,97821.00
2023-04-25T16:42:13.336Z,97824.00
2023-04-25T16:44:49.225Z,97815.00
2023-04-25T16:47:25.574Z,97822.00
2023-04-25T16:50:01.743Z,97830.00
2023-04-25T16:52:37.750Z,97825.00
2023-04-25T16:55:14.349Z,97837.00
2023-04-25T16:57:50.366Z,97838.00
2023-04-25T17:00:27.309Z,97834.00
2023-04-25T17:03:04.288Z,97844.00
2023-04-25T17:05:41.324Z,97841.00
2023-04-25T17:08:17.243Z,97843.00
2023-04-25T17:10:53.365Z,97845.00
2023-04-25T17:13:31.728Z,97854.00
2023-04-25T17:16:07.965Z,97853.00
2023-04-25T17:18:44.283Z,97849.00
2023-04-25T17:21:20.849Z,97855.00
2023-04-25T17:23:58.580Z,97849.00
2023-04-25T17:26:36.547Z,97863.00
2023-04-25T17:29:12.463Z,97860.00
2023-04-25T17:31:49.656Z,97868.00
2023-04-25T17:34:25.654Z,97878.00
2023-04-25T17:37:03.427Z,97875.00
2023-04-25T17:39:40.188Z,97898.00
2023-04-25T17:42:16.213Z,97896.00
2023-04-25T17:44:54.701Z,97902.00
2023-04-25T17:47:32.617Z,97907.00
2023-04-25T17:50:09.069Z,97907.00
2023-04-25T17:52:47.927Z,97905.00
2023-04-25T17:55:24.880Z,97910.00
2023-04-25T17:58:01.124Z,97912.00
2023-04-25T18:00:40.484Z,97918.00
2023-04-25T18:03:16.578Z,97925.00
2023-04-25T18:05:57.970Z,97916.00
2023-04-25T18:08:33.931Z,97919.00
2023-04-25T18:11:09.904Z,97920.00
2023-04-25T18:13:47.792Z,97930.00
2023-04-25T18:16:25.220Z,97929.00
2023-04-25T18:19:05.339Z,97937.00
2023-04-25T18:21:45.811Z,97946.00
2023-04-25T18:24:24.243Z,97945.00
2023-04-25T18:27:02.573Z,97943.00
2023-04-25T18:29:39.208Z,97945.00
2023-04-25T18:32:15.285Z,97947.00
2023-04-25T18:34:51.334Z,97952.00
2023-04-25T18:37:28.281Z,97942.00
2023-04-25T18:40:08.617Z,97953.00
2023-04-25T18:42:44.518Z,97948.00
2023-04-25T18:45:20.728Z,97949.00
2023-04-25T18:47:57.111Z,97950.00
2023-04-25T18:50:33.242Z,97955.00
2023-04-25T18:53:09.214Z,97952.00
2023-04-25T18:55:45.183Z,97958.00
2023-04-25T18:58:21.163Z,97955.00
2023-04-25T19:00:58.211Z,97969.00
2023-04-25T19:03:35.901Z,97979.00
2023-04-25T19:06:12.068Z,97986.00
2023-04-25T19:08:50.592Z,97989.00
2023-04-25T19:11:26.855Z,97989.00
2023-04-25T19:14:02.802Z,97995.00
2023-04-25T19:16:39.063Z,97997.00
2023-04-25T19:19:15.509Z,97995.00
2023-04-25T19:21:52.448Z,97995.00
2023-04-25T19:24:28.650Z,97990.00
2023-04-25T19:27:04.651Z,97987.00
2023-04-25T19:29:44.225Z,97986.00
2023-04-25T19:32:20.099Z,97993.00
2023-04-25T19:34:56.572Z,97989.00
2023-04-25T19:37:33.103Z,97983.00
2023-04-25T19:40:09.592Z,97986.00
2023-04-25T19:42:45.606Z,97989.00
2023-04-25T19:45:21.792Z,97986.00
2023-04-25T19:47:58.684Z,97991.00
2023-04-25T19:50:35.098Z,97996.00
2023-04-25T19:53:10.950Z,97999.00
2023-04-25T19:55:46.883Z,98002.00
2023-04-25T19:58:22.893Z,98003.00
2023-04-25T20:00:58.985Z,98005.00
2023-04-25T20:03:35.389Z,98021.00
2023-04-25T20:06:12.388Z,98010.00
2023-04-25T20:08:48.834Z,98005.00
2023-04-25T20:11:28.444Z,98009.00
2023-04-25T20:14:05.626Z,98004.00
2023-04-25T20:16:43.015Z,98000.00
2023-04-25T20:19:19.456Z,98010.00
2023-04-25T20:21:55.522Z,98021.00
2023-04-25T20:24:31.840Z,98025.00
2023-04-25T20:27:07.804Z,98018.00
2023-04-25T20:29:44.179Z,98029.00
2023-04-25T20:32:20.026Z,98033.00
2023-04-25T20:34:56.577Z,98029.00
2023-04-25T20:37:33.229Z,98032.00
2023-04-25T20:40:09.701Z,98030.00
2023-04-25T20:42:46.636Z,98031.00
2023-04-25T20:45:24.386Z,98030.00
2023-04-25T20:48:00.525Z,98027.00
2023-04-25T20:50:38.308Z,98032.00
2023-04-25T20:53:15.048Z,98035.00
2023-04-25T20:55:50.947Z,98028.00
2023-04-25T20:58:27.469Z,98028.00
2023-04-25T21:01:04.382Z,98037.00
2023-04-25T21:03:40.435Z,98036.00
2023-04-25T21:06:16.863Z,98037.00
2023-04-25T21:08:53.419Z,98038.00
2023-04-25T21:11:29.975Z,98038.00
2023-04-25T21:14:07.095Z,98040.00
2023-04-25T21:16:43.025Z,98039.00
2023-04-25T21:19:19.024Z,98042.00
2023-04-25T21:21:54.957Z,98048.00
2023-04-25T21:24:32.951Z,98048.00
2023-04-25T21:27:09.085Z,98033.00
2023-04-25T21:29:45.633Z,98049.00
2023-04-25T21:32:21.871Z,98047.00
2023-04-25T21:34:57.770Z,98049.00
2023-04-25T21:37:33.629Z,98040.00
2023-04-25T21:40:10.328Z,98047.00
2023-04-25T21:42:51.291Z,98045.00
2023-04-25T21:45:29.196Z,98054.00
2023-04-25T21:48:05.265Z,98058.00
2023-04-25T21:50:41.152Z,98055.00
2023-04-25T21:53:17.006Z,98061.00
2023-04-25T21:55:53.064Z,98066.00
2023-04-25T21:58:28.951Z,98066.00
2023-04-25T22:01:04.903Z,98058.00
2023-04-25T22:03:40.993Z,98064.00
2023-04-25T22:06:17.007Z,98054.00
2023-04-25T22:08:53.224Z,98054.00
2023-04-25T22:11:29.295Z,98062.00
2023-04-25T22:14:05.870Z,98053.00
2023-04-25T22:16:41.876Z,98062.00
2023-04-25T22:19:17.970Z,98065.00
2023-04-25T22:21:54.254Z,98056.00
2023-04-25T22:24:30.860Z,98069.00
2023-04-25T22:27:06.993Z,98072.00
2023-04-25T22:29:42.839Z,98073.00
2023-04-25T22:32:18.907Z,98073.00
2023-04-25T22:34:54.795Z,98075.00
2023-04-25T22:37:31.607Z,98082.00
2023-04-25T22:40:09.119Z,98088.00
2023-04-25T22:42:45.230Z,98075.00
2023-04-25T22:45:21.169Z,98091.00
2023-04-25T22:47:57.050Z,98086.00
2023-04-25T22:50:33.463Z,98089.00
2023-04-25T22:53:12.785Z,98094.00
2023-04-25T22:55:57.284Z,98098.00
2023-04-25T22:58:33.458Z,98099.00
2023-04-25T23:01:11.355Z,98088.00
2023-04-25T23:03:47.434Z,98100.00
2023-04-25T23:06:24.680Z,98093.00
2023-04-25T23:09:00.571Z,98098.00
2023-04-25T23:11:37.202Z,98091.00
2023-04-25T23:14:13.120Z,98093.00
2023-04-25T23:16:49.577Z,98104.00
2023-04-25T23:19:26.539Z,98100.00
2023-04-25T23:22:02.398Z,98092.00
2023-04-25T23:24:41.198Z,98095.00
2023-04-25T23:27:17.662Z,98096.00
2023-04-25T23:29:55.309Z,98098.00
2023-04-25T23:32:31.956Z,98086.00
2023-04-25T23:35:08.504Z,98093.00
2023-04-25T23:37:44.479Z,98092.00
2023-04-25T23:40:20.470Z,98096.00
2023-04-25T23:42:56.719Z,98095.00
2023-04-25T23:45:32.597Z,98095.00
2023-04-25T23:48:08.582Z,98101.00
2023-04-25T23:50:44.489Z,98111.00
2023-04-25T23:53:20.353Z,98115.00
2023-04-25T23:55:56.208Z,98114.00
2023-04-25T23:58:32.060Z,98111.00
